Time;durP1;ratioP1;P1;durP2;ratioP2;P2;SDS_P1;SDS_P2;PMS_P1;PMS_P2;Temp;Humidity;BMP_temperature;BMP_pressure;BME280_temperature;BME280_humidity;BME280_pressure;Samples;Min_cycle;Max_cycle;Signal;HPM_P1;HPM_P2
2021/05/25 00:00:49;;;;;;;1.23;0.80;;;9.10;99.90;;;;;;4955234;28;20371;-74
2021/05/25 00:03:16;;;;;;;1.05;0.77;;;9.10;99.90;;;;;;4955714;28;20055;-74
2021/05/25 00:05:42;;;;;;;1.23;0.60;;;9.10;99.90;;;;;;4955531;28;20027;-74
2021/05/25 00:08:09;;;;;;;1.27;0.85;;;9.00;99.90;;;;;;4955384;28;20038;-75
2021/05/25 00:10:35;;;;;;;2.88;1.23;;;9.00;99.90;;;;;;4972182;28;20475;-74
2021/05/25 00:13:01;;;;;;;1.52;0.98;;;8.90;99.90;;;;;;4955181;28;20031;-74
2021/05/25 00:15:29;;;;;;;1.63;0.73;;;8.70;99.90;;;;;;4972313;28;20560;-74
2021/05/25 00:17:55;;;;;;;1.15;0.70;;;8.60;99.90;;;;;;4972667;28;20078;-74
2021/05/25 00:20:23;;;;;;;0.85;0.75;;;8.60;99.90;;;;;;4972004;28;20035;-75
2021/05/25 00:22:49;;;;;;;2.08;0.88;;;8.60;99.90;;;;;;4972713;28;20089;-74
2021/05/25 00:25:15;;;;;;;2.58;0.93;;;8.50;99.90;;;;;;4972802;28;20034;-73
2021/05/25 00:27:42;;;;;;;0.88;0.80;;;8.60;99.90;;;;;;4982580;28;20354;-74
2021/05/25 00:30:09;;;;;;;1.20;1.10;;;8.60;99.90;;;;;;4991001;28;20053;-76
2021/05/25 00:32:35;;;;;;;2.42;0.93;;;8.60;99.90;;;;;;4992086;28;20500;-74
2021/05/25 00:35:02;;;;;;;2.28;1.05;;;8.60;99.90;;;;;;4992043;28;20948;-73
2021/05/25 00:37:28;;;;;;;3.08;1.10;;;8.50;99.90;;;;;;4991915;28;20081;-73
2021/05/25 00:39:54;;;;;;;1.08;0.98;;;8.40;99.90;;;;;;4991401;28;20404;-74
2021/05/25 00:44:53;;;;;;;1.10;1.00;;;8.30;99.90;;;;;;4972170;28;20568;-71
2021/05/25 00:47:27;;;;;;;2.25;0.82;;;8.20;99.90;;;;;;4975935;28;20150;-72
2021/05/25 00:49:54;;;;;;;1.42;0.75;;;8.10;99.90;;;;;;4974180;28;20031;-72
2021/05/25 00:52:20;;;;;;;3.97;0.90;;;8.10;99.90;;;;;;4975890;28;20026;-72
2021/05/25 00:54:46;;;;;;;3.42;1.02;;;8.00;99.90;;;;;;4975949;28;20015;-72
2021/05/25 00:57:11;;;;;;;2.08;1.88;;;8.00;99.90;;;;;;4975713;28;20162;-71
2021/05/25 00:59:38;;;;;;;4.53;1.17;;;7.90;99.90;;;;;;4975168;28;20022;-71
2021/05/25 01:02:04;;;;;;;6.53;1.00;;;7.80;99.90;;;;;;4975988;28;20030;-71
2021/05/25 01:04:30;;;;;;;1.17;1.08;;;7.80;99.90;;;;;;4974689;28;20023;-73
2021/05/25 01:06:56;;;;;;;4.35;1.00;;;7.80;99.90;;;;;;4975709;28;20102;-71
2021/05/25 01:09:21;;;;;;;3.22;1.45;;;7.80;99.90;;;;;;4975143;28;20082;-72
2021/05/25 01:11:48;;;;;;;2.92;0.85;;;7.80;99.90;;;;;;4975395;28;20030;-70
2021/05/25 01:14:14;;;;;;;5.80;1.30;;;7.80;99.90;;;;;;4975666;28;20681;-72
2021/05/25 01:16:39;;;;;;;3.13;1.17;;;7.80;99.90;;;;;;4975590;28;20023;-72
2021/05/25 01:19:05;;;;;;;1.70;1.30;;;7.70;99.90;;;;;;4975954;28;20069;-71
2021/05/25 01:21:36;;;;;;;6.00;1.40;;;7.70;99.90;;;;;;4975031;28;20035;-71
2021/05/25 01:24:02;;;;;;;3.22;1.10;;;7.60;99.90;;;;;;4975701;28;20023;-71
2021/05/25 01:26:28;;;;;;;1.95;1.10;;;7.50;99.90;;;;;;4976192;28;20038;-71
2021/05/25 01:28:54;;;;;;;5.90;1.52;;;7.60;99.90;;;;;;4979070;28;20054;-71
2021/05/25 01:31:20;;;;;;;2.70;1.55;;;7.60;99.90;;;;;;4978832;28;20058;-71
2021/05/25 01:33:46;;;;;;;4.97;1.48;;;7.50;99.90;;;;;;4978663;28;20041;-71
2021/05/25 01:36:13;;;;;;;3.15;1.33;;;7.50;99.90;;;;;;4983457;28;20030;-72
2021/05/25 01:38:39;;;;;;;7.82;1.30;;;7.40;99.90;;;;;;4993333;28;20034;-72
2021/05/25 01:41:06;;;;;;;2.17;1.30;;;7.40;99.90;;;;;;5011098;28;20280;-71
2021/05/25 01:43:32;;;;;;;3.45;1.85;;;7.50;99.90;;;;;;4995413;28;20449;-73
2021/05/25 01:45:59;;;;;;;6.47;1.20;;;7.50;99.90;;;;;;4996311;28;20027;-71
2021/05/25 01:48:24;;;;;;;1.63;1.00;;;7.50;99.90;;;;;;4997837;28;20039;-71
2021/05/25 01:50:51;;;;;;;3.70;1.17;;;7.50;99.90;;;;;;4995897;28;20039;-72
2021/05/25 01:53:24;;;;;;;4.03;1.02;;;7.50;99.90;;;;;;4992973;28;20042;-72
2021/05/25 01:55:52;;;;;;;3.65;1.30;;;7.60;99.90;;;;;;4976808;28;20046;-73
2021/05/25 01:58:20;;;;;;;2.75;1.10;;;7.60;99.90;;;;;;4973950;28;20099;-72
2021/05/25 02:00:52;;;;;;;3.75;1.20;;;7.50;99.90;;;;;;4974324;28;20134;-72
2021/05/25 02:03:18;;;;;;;3.13;1.00;;;7.50;99.90;;;;;;4974689;28;20117;-72
2021/05/25 02:05:47;;;;;;;3.38;1.38;;;7.60;99.90;;;;;;4974386;28;20106;-73
2021/05/25 02:08:14;;;;;;;2.00;1.77;;;7.70;99.90;;;;;;4974482;28;20038;-72
2021/05/25 02:10:45;;;;;;;2.85;0.77;;;7.70;99.90;;;;;;4973922;28;20030;-72
2021/05/25 02:13:17;;;;;;;5.45;1.20;;;7.80;99.90;;;;;;4974213;28;20481;-71
2021/05/25 02:15:44;;;;;;;4.82;0.85;;;7.80;99.90;;;;;;4974222;28;20034;-72
2021/05/25 02:18:14;;;;;;;4.85;1.05;;;7.70;99.90;;;;;;4974618;28;20069;-72
2021/05/25 02:20:41;;;;;;;2.90;0.70;;;7.70;99.90;;;;;;4973649;28;20385;-71
2021/05/25 02:23:07;;;;;;;3.20;0.77;;;7.70;99.90;;;;;;4973431;28;20031;-71
2021/05/25 02:25:33;;;;;;;2.80;0.85;;;7.60;99.90;;;;;;4974018;28;20030;-71
2021/05/25 02:28:00;;;;;;;3.08;0.90;;;7.60;99.90;;;;;;4974266;28;20404;-71
2021/05/25 02:30:28;;;;;;;2.53;0.80;;;7.70;99.90;;;;;;4972671;28;20019;-71
2021/05/25 02:32:53;;;;;;;3.75;0.95;;;7.70;99.90;;;;;;4974228;28;20041;-71
2021/05/25 02:35:19;;;;;;;3.20;0.80;;;7.70;99.90;;;;;;4974084;28;20484;-72
2021/05/25 02:37:45;;;;;;;3.85;0.90;;;7.70;99.90;;;;;;4974166;28;20026;-73
2021/05/25 02:40:11;;;;;;;2.53;0.90;;;7.80;99.90;;;;;;4973045;28;20031;-72
2021/05/25 02:42:37;;;;;;;2.63;0.80;;;7.80;99.90;;;;;;4973569;28;20070;-73
2021/05/25 02:45:04;;;;;;;2.00;0.80;;;7.80;99.90;;;;;;4974142;28;20065;-72
2021/05/25 02:47:29;;;;;;;3.05;1.02;;;7.80;99.90;;;;;;4973776;28;20406;-73
2021/05/25 02:49:55;;;;;;;1.05;0.85;;;7.80;99.90;;;;;;4972919;28;20030;-73
2021/05/25 02:52:21;;;;;;;6.20;1.02;;;7.80;99.90;;;;;;4973811;28;20030;-73
2021/05/25 02:54:46;;;;;;;8.25;1.40;;;7.80;99.90;;;;;;4973343;28;20082;-73
2021/05/25 02:57:12;;;;;;;2.35;0.88;;;7.90;99.90;;;;;;4973897;28;20022;-72
2021/05/25 02:59:38;;;;;;;2.83;0.90;;;7.80;99.90;;;;;;4971938;28;20037;-71
2021/05/25 03:02:03;;;;;;;3.55;0.80;;;7.80;99.90;;;;;;4973463;28;20105;-71
2021/05/25 03:04:29;;;;;;;1.35;0.73;;;7.80;99.90;;;;;;4972745;28;20031;-72
2021/05/25 03:06:56;;;;;;;1.98;0.70;;;7.80;99.90;;;;;;4973218;28;20780;-72
2021/05/25 03:09:21;;;;;;;2.58;0.90;;;7.70;99.90;;;;;;4973208;28;20027;-71
2021/05/25 03:11:47;;;;;;;3.20;0.80;;;7.80;99.90;;;;;;4973392;28;20496;-73
2021/05/25 03:14:12;;;;;;;6.65;1.38;;;7.80;99.90;;;;;;4972917;28;20501;-73
2021/05/25 03:16:38;;;;;;;2.70;0.73;;;7.80;99.90;;;;;;4973444;28;20033;-73
2021/05/25 03:19:05;;;;;;;3.20;0.80;;;7.80;99.90;;;;;;4973332;28;20026;-73
2021/05/25 03:21:31;;;;;;;3.70;0.98;;;7.80;99.90;;;;;;4972942;28;20105;-73
2021/05/25 03:23:57;;;;;;;2.92;0.60;;;7.80;99.90;;;;;;4972356;28;20301;-72
2021/05/25 03:26:23;;;;;;;6.93;1.38;;;7.80;99.90;;;;;;4973117;28;20030;-72
2021/05/25 03:28:48;;;;;;;2.40;0.90;;;7.70;99.90;;;;;;4973173;28;20491;-73
2021/05/25 03:31:15;;;;;;;3.67;0.90;;;7.70;99.90;;;;;;4971101;28;20027;-71
2021/05/25 03:33:40;;;;;;;2.35;0.90;;;7.60;99.90;;;;;;4972707;28;20023;-73
2021/05/25 03:36:06;;;;;;;3.95;1.10;;;7.60;99.90;;;;;;4971713;28;20094;-72
2021/05/25 03:38:32;;;;;;;6.80;0.82;;;7.60;99.90;;;;;;4973045;28;20593;-71
2021/05/25 03:40:58;;;;;;;2.50;0.73;;;7.50;99.90;;;;;;4972535;28;20031;-71
2021/05/25 03:43:23;;;;;;;5.05;1.25;;;7.60;99.90;;;;;;4972938;28;20037;-72
2021/05/25 03:45:49;;;;;;;1.95;0.60;;;7.60;99.90;;;;;;4972551;28;20071;-73
2021/05/25 03:48:17;;;;;;;4.03;0.90;;;7.50;99.90;;;;;;4972941;28;20113;-73
2021/05/25 03:50:42;;;;;;;7.80;1.20;;;7.60;99.90;;;;;;4972221;28;20027;-71
2021/05/25 03:53:08;;;;;;;1.92;0.85;;;7.60;99.90;;;;;;4972860;28;20025;-73
2021/05/25 03:55:45;;;;;;;2.40;1.00;;;7.60;99.90;;;;;;4971558;28;20482;-72
2021/05/25 04:00:55;;;;;;;2.22;1.08;;;7.60;99.90;;;;;;4972054;28;20100;-71
2021/05/25 04:03:21;;;;;;;5.10;1.23;;;7.60;99.90;;;;;;4972828;28;20035;-72
2021/05/25 04:05:47;;;;;;;5.82;1.33;;;7.60;99.90;;;;;;4972715;28;20039;-72
2021/05/25 04:08:14;;;;;;;2.35;0.88;;;7.60;99.90;;;;;;4971837;28;20066;-71
2021/05/25 04:10:39;;;;;;;2.03;1.08;;;7.60;99.90;;;;;;4971736;28;20037;-71
2021/05/25 04:13:05;;;;;;;6.00;0.85;;;7.50;99.90;;;;;;4972652;28;20027;-71
2021/05/25 04:15:33;;;;;;;0.60;0.52;;;7.50;99.90;;;;;;4974035;28;20023;-73
2021/05/25 04:18:00;;;;;;;2.40;0.80;;;7.50;99.90;;;;;;4976496;28;20031;-71
2021/05/25 04:20:25;;;;;;;1.13;0.70;;;7.60;99.90;;;;;;4976407;28;20102;-72
2021/05/25 04:22:51;;;;;;;2.42;0.68;;;7.60;99.90;;;;;;4975591;28;20058;-72
2021/05/25 04:25:17;;;;;;;1.67;0.75;;;7.60;99.90;;;;;;4976744;28;20037;-72
2021/05/25 04:27:43;;;;;;;2.83;0.73;;;7.70;99.90;;;;;;4976901;28;20452;-73
2021/05/25 04:30:10;;;;;;;4.38;0.60;;;7.70;99.90;;;;;;4975904;28;20409;-72
2021/05/25 04:32:36;;;;;;;3.63;0.65;;;7.70;99.90;;;;;;4977736;28;20058;-71
2021/05/25 04:35:04;;;;;;;1.42;0.57;;;7.80;99.90;;;;;;4977215;28;20059;-71
2021/05/25 04:37:29;;;;;;;2.08;0.60;;;7.80;99.90;;;;;;4976435;28;20025;-71
2021/05/25 04:39:55;;;;;;;1.27;0.38;;;7.90;99.90;;;;;;4975538;28;20030;-71
2021/05/25 04:42:21;;;;;;;3.72;0.80;;;7.90;99.90;;;;;;4976142;28;20457;-71
2021/05/25 04:44:46;;;;;;;2.65;0.70;;;7.90;99.90;;;;;;4975596;28;20038;-72
2021/05/25 04:47:12;;;;;;;1.40;0.60;;;8.00;99.90;;;;;;4976240;28;20034;-73
2021/05/25 04:49:40;;;;;;;1.05;0.57;;;8.10;99.90;;;;;;4974320;28;20106;-73
2021/05/25 04:52:07;;;;;;;3.15;0.60;;;8.00;99.90;;;;;;4975802;28;20019;-72
2021/05/25 04:54:33;;;;;;;3.58;0.80;;;8.00;99.90;;;;;;4975822;28;20103;-72
2021/05/25 04:56:59;;;;;;;3.00;0.82;;;8.00;99.90;;;;;;4975698;28;20035;-72
2021/05/25 04:59:25;;;;;;;3.38;1.05;;;8.00;99.90;;;;;;4975390;28;20015;-71
2021/05/25 05:01:51;;;;;;;2.53;0.75;;;8.20;99.90;;;;;;4975045;28;20085;-71
2021/05/25 05:04:17;;;;;;;8.38;0.90;;;8.40;99.90;;;;;;4975549;28;20178;-72
2021/05/25 05:06:42;;;;;;;2.15;0.68;;;8.50;99.90;;;;;;4975760;28;20034;-71
2021/05/25 05:09:08;;;;;;;3.60;0.95;;;8.70;99.90;;;;;;4975906;28;20038;-71
2021/05/25 05:11:34;;;;;;;2.05;0.85;;;8.70;99.90;;;;;;4973638;28;20030;-71
2021/05/25 05:14:00;;;;;;;2.95;0.75;;;8.80;99.90;;;;;;4975667;28;20104;-73
2021/05/25 05:16:25;;;;;;;2.47;0.95;;;8.80;99.90;;;;;;4975597;28;20031;-73
2021/05/25 05:18:51;;;;;;;4.15;0.45;;;8.80;99.90;;;;;;4975571;28;20033;-73
2021/05/25 05:21:17;;;;;;;3.47;0.63;;;8.90;99.90;;;;;;4974871;28;20037;-72
2021/05/25 05:23:43;;;;;;;2.83;0.80;;;9.00;99.90;;;;;;4975467;28;20030;-72
2021/05/25 05:26:10;;;;;;;2.70;0.52;;;9.00;99.90;;;;;;4974954;28;20070;-72
2021/05/25 05:28:36;;;;;;;3.05;0.70;;;9.00;99.90;;;;;;4974935;28;20022;-72
2021/05/25 05:31:03;;;;;;;5.00;0.60;;;9.00;99.90;;;;;;4969705;28;20030;-72
2021/05/25 05:33:29;;;;;;;6.55;1.00;;;9.10;99.90;;;;;;4967117;28;20560;-71
2021/05/25 05:35:54;;;;;;;7.30;0.90;;;9.10;99.90;;;;;;4974453;28;20065;-71
2021/05/25 05:38:22;;;;;;;3.78;0.50;;;9.30;99.90;;;;;;4974485;28;20023;-71
2021/05/25 05:40:48;;;;;;;4.38;1.00;;;9.40;99.90;;;;;;4973985;28;20058;-71
2021/05/25 05:43:14;;;;;;;1.83;0.38;;;9.40;99.90;;;;;;4974364;28;20066;-71
2021/05/25 05:45:40;;;;;;;2.80;0.82;;;9.40;99.90;;;;;;4968868;28;20456;-71
2021/05/25 05:48:06;;;;;;;4.72;0.90;;;9.70;99.90;;;;;;4956213;29;20035;-69
2021/05/25 05:50:32;;;;;;;0.65;0.32;;;9.80;99.90;;;;;;4966157;28;20031;-73
2021/05/25 05:52:58;;;;;;;3.05;0.50;;;9.70;99.90;;;;;;4975472;28;20080;-72
2021/05/25 05:55:24;;;;;;;4.90;0.85;;;9.70;99.90;;;;;;4972482;28;20771;-71
2021/05/25 05:57:52;;;;;;;2.15;0.63;;;9.70;99.90;;;;;;4975722;28;20050;-72
2021/05/25 06:00:17;;;;;;;1.25;0.50;;;9.70;99.90;;;;;;4974101;28;20041;-73
2021/05/25 06:02:43;;;;;;;2.80;0.60;;;9.80;99.90;;;;;;4975166;28;20023;-73
2021/05/25 06:05:09;;;;;;;3.53;0.75;;;9.90;99.90;;;;;;4971158;28;20489;-70
2021/05/25 06:07:35;;;;;;;3.40;0.98;;;10.00;99.90;;;;;;4972806;28;20513;-71
2021/05/25 06:10:02;;;;;;;3.05;1.25;;;10.10;99.90;;;;;;4970437;28;20046;-71
2021/05/25 06:12:28;;;;;;;2.05;0.60;;;10.10;99.90;;;;;;4971762;28;20109;-70
2021/05/25 06:14:53;;;;;;;1.92;0.50;;;10.00;99.90;;;;;;4971789;28;20114;-70
2021/05/25 06:17:19;;;;;;;4.35;0.80;;;10.10;99.90;;;;;;4972456;28;20053;-70
2021/05/25 06:19:45;;;;;;;4.75;0.60;;;10.20;99.90;;;;;;4971899;28;20023;-72
2021/05/25 06:22:11;;;;;;;3.67;0.80;;;10.30;99.90;;;;;;4971675;28;20587;-72
2021/05/25 06:24:37;;;;;;;1.90;0.90;;;10.50;99.90;;;;;;4972562;28;20046;-71
2021/05/25 06:27:04;;;;;;;1.85;0.65;;;10.60;99.90;;;;;;4971618;28;20520;-72
2021/05/25 06:29:29;;;;;;;3.72;0.80;;;10.80;99.90;;;;;;4970767;28;20031;-72
2021/05/25 06:32:00;;;;;;;2.63;0.50;;;10.90;99.90;;;;;;4972298;28;20042;-73
2021/05/25 06:34:26;;;;;;;3.95;0.70;;;11.40;99.90;;;;;;4971236;28;20035;-73
2021/05/25 06:36:52;;;;;;;2.55;0.52;;;12.60;99.90;;;;;;4971716;28;20420;-70
2021/05/25 06:39:18;;;;;;;1.67;0.65;;;12.70;99.90;;;;;;4972503;28;20030;-70
2021/05/25 06:41:43;;;;;;;2.50;1.00;;;11.90;99.90;;;;;;4972012;28;20129;-71
2021/05/25 06:44:09;;;;;;;2.50;0.73;;;11.60;99.90;;;;;;4971623;28;20517;-71
2021/05/25 06:46:35;;;;;;;1.58;0.63;;;11.50;99.90;;;;;;4971042;28;20035;-72
2021/05/25 06:49:01;;;;;;;1.23;0.80;;;11.40;99.90;;;;;;4971383;28;20031;-71
2021/05/25 06:51:27;;;;;;;2.15;0.65;;;11.50;99.90;;;;;;4971539;28;20039;-71
2021/05/25 06:53:53;;;;;;;3.38;0.45;;;11.40;99.90;;;;;;4971558;28;20508;-71
2021/05/25 06:56:19;;;;;;;3.78;0.50;;;11.20;99.90;;;;;;4970935;28;20039;-70
2021/05/25 06:58:45;;;;;;;3.65;0.80;;;11.40;99.90;;;;;;4987033;28;20035;-69
2021/05/25 07:01:10;;;;;;;1.38;0.40;;;11.50;99.90;;;;;;4971093;28;20031;-71
2021/05/25 07:03:36;;;;;;;2.75;0.60;;;11.30;99.90;;;;;;4971202;28;20034;-70
2021/05/25 07:06:02;;;;;;;5.05;0.77;;;11.30;99.90;;;;;;4970554;28;20043;-71
2021/05/25 07:08:27;;;;;;;12.55;1.30;;;11.40;99.90;;;;;;4972229;28;20093;-71
2021/05/25 07:10:53;;;;;;;6.68;1.00;;;11.50;99.90;;;;;;4973167;28;20101;-71
2021/05/25 07:13:18;;;;;;;7.13;0.77;;;11.60;99.90;;;;;;4971809;28;20031;-72
2021/05/25 07:15:44;;;;;;;5.68;0.55;;;11.60;99.90;;;;;;4970245;28;20039;-71
2021/05/25 07:18:12;;;;;;;2.03;0.55;;;11.40;99.90;;;;;;4970887;28;20027;-71
2021/05/25 07:20:38;;;;;;;2.75;0.77;;;11.60;99.90;;;;;;4984564;28;20031;-70
2021/05/25 07:23:03;;;;;;;4.40;0.90;;;11.70;99.90;;;;;;4970694;28;20045;-72
2021/05/25 07:25:29;;;;;;;2.78;0.60;;;11.80;99.90;;;;;;4971452;28;20408;-70
2021/05/25 07:27:57;;;;;;;2.75;0.57;;;12.00;99.90;;;;;;4970689;28;20485;-71
2021/05/25 07:30:23;;;;;;;2.90;0.70;;;12.30;99.90;;;;;;4968452;28;20035;-71
2021/05/25 07:32:49;;;;;;;1.67;0.50;;;12.60;99.90;;;;;;4971193;28;20401;-72
2021/05/25 07:35:15;;;;;;;4.55;0.70;;;12.90;99.90;;;;;;4970265;28;20464;-72
2021/05/25 07:37:41;;;;;;;3.95;0.70;;;12.90;99.90;;;;;;4961532;28;20067;-70
2021/05/25 07:40:09;;;;;;;8.43;0.90;;;12.90;99.90;;;;;;4958491;28;20034;-72
2021/05/25 07:42:35;;;;;;;3.95;0.80;;;12.80;99.90;;;;;;4960553;28;20031;-72
2021/05/25 07:45:01;;;;;;;7.18;0.68;;;12.80;99.90;;;;;;4959810;28;20405;-72
2021/05/25 07:47:27;;;;;;;8.80;0.80;;;12.80;99.90;;;;;;4984835;23;20050;-76
2021/05/25 07:49:53;;;;;;;4.22;0.82;;;12.90;99.90;;;;;;4994992;28;20026;-76
2021/05/25 07:52:19;;;;;;;3.38;0.90;;;12.80;99.90;;;;;;4983339;28;20090;-76
2021/05/25 07:54:45;;;;;;;5.25;0.70;;;12.50;99.90;;;;;;4981354;28;20033;-78
2021/05/25 07:57:12;;;;;;;7.10;1.40;;;12.70;99.90;;;;;;4976324;28;20460;-78
2021/05/25 07:59:37;;;;;;;8.00;1.00;;;13.00;99.90;;;;;;4978519;28;20047;-77
2021/05/25 08:02:03;;;;;;;12.70;1.08;;;12.90;99.90;;;;;;4975223;28;20045;-76
2021/05/25 08:04:29;;;;;;;3.65;0.52;;;13.20;99.90;;;;;;4996033;28;20097;-76
2021/05/25 08:06:55;;;;;;;2.28;0.75;;;12.90;99.90;;;;;;4993957;28;20023;-77
2021/05/25 08:09:21;;;;;;;3.70;0.80;;;13.30;99.90;;;;;;4977689;28;20026;-77
2021/05/25 08:11:46;;;;;;;2.63;0.68;;;13.00;99.90;;;;;;4994996;28;20539;-78
2021/05/25 08:14:12;;;;;;;4.60;0.50;;;13.00;99.90;;;;;;4976744;28;20018;-76
2021/05/25 08:16:41;;;;;;;6.57;1.33;;;13.10;99.90;;;;;;4974775;28;20082;-77
2021/05/25 08:21:39;;;;;;;6.13;1.08;;;13.20;99.90;;;;;;4974430;28;20489;-77
2021/05/25 08:24:06;;;;;;;5.88;1.10;;;13.60;99.90;;;;;;4974554;28;20038;-76
2021/05/25 08:26:33;;;;;;;2.33;0.85;;;14.00;99.90;;;;;;4963648;28;20019;-77
2021/05/25 08:28:59;;;;;;;5.60;0.80;;;14.10;99.60;;;;;;4982784;28;20038;-77
2021/05/25 08:31:25;;;;;;;2.53;0.70;;;13.70;99.80;;;;;;4977127;28;20050;-74
2021/05/25 08:33:51;;;;;;;6.85;0.90;;;13.40;99.20;;;;;;4973059;28;20488;-75
2021/05/25 08:36:17;;;;;;;3.70;0.98;;;13.80;99.90;;;;;;4972044;28;20030;-75
2021/05/25 08:38:44;;;;;;;3.05;1.00;;;13.60;99.70;;;;;;4974363;28;20540;-76
2021/05/25 08:41:10;;;;;;;2.85;0.70;;;13.40;99.00;;;;;;4991343;28;20026;-76
2021/05/25 08:43:36;;;;;;;4.13;0.88;;;13.40;99.70;;;;;;4975070;28;20400;-75
2021/05/25 08:46:03;;;;;;;3.35;0.80;;;13.60;99.90;;;;;;4993543;28;20027;-76
2021/05/25 08:48:30;;;;;;;1.50;0.80;;;14.00;99.90;;;;;;4992079;28;20061;-76
2021/05/25 08:51:02;;;;;;;2.67;0.82;;;14.30;99.40;;;;;;4992935;28;20109;-74
2021/05/25 08:53:28;;;;;;;;;;;14.30;97.70;;;;;;4992159;28;20074;-75
2021/05/25 08:55:55;;;;;;;4.40;0.88;;;14.30;97.90;;;;;;4991972;28;19910;-74
2021/05/25 08:58:22;;;;;;;4.80;1.00;;;14.20;98.00;;;;;;4991643;28;20097;-74
2021/05/25 09:00:52;;;;;;;3.28;0.82;;;14.30;97.10;;;;;;4990579;28;20023;-74
2021/05/25 09:03:19;;;;;;;2.88;1.05;;;13.80;97.60;;;;;;4994236;28;20030;-74
2021/05/25 09:05:55;;;;;;;2.88;0.98;;;13.80;97.90;;;;;;4977962;28;20031;-76
2021/05/25 09:08:21;;;;;;;1.73;1.00;;;13.60;98.10;;;;;;4995166;28;20076;-74
2021/05/25 09:10:47;;;;;;;2.65;0.60;;;13.10;97.20;;;;;;4977515;28;20451;-75
2021/05/25 09:13:17;;;;;;;2.33;0.70;;;13.00;98.80;;;;;;4994848;28;20466;-74
2021/05/25 09:15:45;;;;;;;1.48;0.70;;;12.90;98.80;;;;;;4995116;28;20049;-74
2021/05/25 09:18:29;;;;;;;3.05;0.82;;;13.00;99.70;;;;;;4994595;28;20018;-76
2021/05/25 09:21:00;;;;;;;4.03;0.70;;;13.10;99.40;;;;;;4990795;28;20034;-75
2021/05/25 09:23:32;;;;;;;5.55;0.88;;;12.90;99.00;;;;;;4983879;28;20065;-73
2021/05/25 09:26:04;;;;;;;4.80;1.10;;;12.90;99.40;;;;;;4983989;28;20042;-75
2021/05/25 09:28:30;;;;;;;3.03;0.65;;;12.70;99.50;;;;;;4975794;28;20273;-75
2021/05/25 09:30:56;;;;;;;3.00;1.10;;;12.50;99.40;;;;;;4967934;28;20062;-76
2021/05/25 09:33:22;;;;;;;5.85;1.10;;;12.50;99.50;;;;;;4958135;28;20686;-74
2021/05/25 09:35:49;;;;;;;1.13;0.70;;;12.60;99.60;;;;;;4975488;28;20026;-75
2021/05/25 09:38:21;;;;;;;3.70;1.20;;;12.50;99.00;;;;;;4975024;28;20114;-74
2021/05/25 09:40:51;;;;;;;4.93;1.05;;;12.50;99.90;;;;;;4962100;28;20113;-76
2021/05/25 09:43:22;;;;;;;2.67;0.60;;;12.30;99.70;;;;;;4966972;28;20035;-73
2021/05/25 09:45:54;;;;;;;7.88;0.90;;;12.20;99.80;;;;;;4984481;28;20039;-74
2021/05/25 09:48:21;;;;;;;4.50;1.27;;;12.30;99.90;;;;;;4985280;28;20035;-73
2021/05/25 09:50:47;;;;;;;3.60;1.73;;;12.30;99.90;;;;;;4982292;28;20512;-75
2021/05/25 09:53:21;;;;;;;5.32;0.80;;;12.50;99.90;;;;;;4990541;28;20022;-73
2021/05/25 09:55:51;;;;;;;3.85;1.52;;;12.50;99.40;;;;;;4996098;28;20038;-71
2021/05/25 09:58:18;;;;;;;3.67;1.30;;;12.60;99.90;;;;;;4983854;28;20023;-72
2021/05/25 10:00:46;;;;;;;1.77;0.70;;;12.80;99.70;;;;;;4965965;28;20097;-75
2021/05/25 10:03:18;;;;;;;3.70;0.57;;;12.60;99.40;;;;;;4984824;28;20030;-74
2021/05/25 10:05:50;;;;;;;3.58;0.90;;;12.50;99.60;;;;;;4985266;28;20030;-75
2021/05/25 10:08:27;;;;;;;5.63;1.02;;;12.90;99.90;;;;;;4985937;28;20041;-74
2021/05/25 10:10:55;;;;;;;2.55;0.70;;;13.60;99.90;;;;;;4992001;28;20046;-77
2021/05/25 10:13:26;;;;;;;2.00;0.80;;;13.80;99.90;;;;;;4968177;28;20026;-73
2021/05/25 10:15:53;;;;;;;2.92;0.90;;;14.00;98.70;;;;;;4981967;28;20022;-73
2021/05/25 10:20:46;;;;;;;2.70;1.10;;;13.20;99.00;;;;;;4982615;28;20023;-75
2021/05/25 10:23:13;;;;;;;4.20;0.80;;;13.20;99.90;;;;;;4983595;28;20051;-74
2021/05/25 10:25:41;;;;;;;6.82;1.90;;;13.50;99.90;;;;;;4983533;28;20038;-74
2021/05/25 10:28:09;;;;;;;2.70;0.63;;;13.10;99.90;;;;;;4982066;28;20034;-75
2021/05/25 10:30:44;;;;;;;5.78;0.95;;;13.00;99.30;;;;;;4982316;28;20117;-75
2021/05/25 10:33:10;;;;;;;1.58;0.70;;;13.00;99.90;;;;;;4982420;28;20416;-74
2021/05/25 10:35:58;;;;;;;3.70;1.13;;;13.20;99.50;;;;;;4983036;28;20034;-74
2021/05/25 10:38:32;;;;;;;4.22;1.00;;;13.90;98.90;;;;;;4983577;28;20049;-74
2021/05/25 10:41:01;;;;;;;4.43;1.20;;;14.60;98.90;;;;;;4981034;28;20035;-74
2021/05/25 10:43:30;;;;;;;3.88;1.15;;;15.50;98.00;;;;;;4982641;28;20101;-76
2021/05/25 10:46:11;;;;;;;2.35;1.05;;;15.90;95.70;;;;;;4982406;28;20602;-71
2021/05/25 10:48:56;;;;;;;5.53;0.77;;;16.20;94.50;;;;;;4964336;28;20035;-72
2021/05/25 10:51:22;;;;;;;4.20;1.17;;;15.30;93.90;;;;;;4980924;28;20648;-73
2021/05/25 10:54:19;;;;;;;2.80;0.70;;;14.70;95.10;;;;;;4982269;28;20031;-74
2021/05/25 10:56:45;;;;;;;4.72;1.88;;;14.20;95.70;;;;;;4982277;28;20026;-73
2021/05/25 10:59:10;;;;;;;4.03;0.60;;;13.90;97.70;;;;;;4981581;28;20057;-73
2021/05/25 11:01:36;;;;;;;3.33;0.93;;;13.50;99.40;;;;;;4981377;28;20110;-75
2021/05/25 11:04:09;;;;;;;4.93;0.65;;;13.70;99.90;;;;;;4982679;28;20073;-72
2021/05/25 11:06:35;;;;;;;3.15;0.80;;;14.10;99.70;;;;;;4981899;28;20027;-73
2021/05/25 11:09:40;;;;;;;2.25;0.70;;;14.30;98.60;;;;;;4981973;28;20492;-76
2021/05/25 11:12:08;;;;;;;1.48;0.63;;;15.20;99.90;;;;;;4915497;29;20163;-78
2021/05/25 11:14:34;;;;;;;3.58;1.00;;;14.80;96.70;;;;;;4931845;29;20035;-76
2021/05/25 11:17:33;;;;;;;0.70;0.60;;;15.50;98.60;;;;;;4956510;28;20045;-75
2021/05/25 11:20:50;;;;;;;1.88;0.80;;;15.70;95.80;;;;;;4983723;28;20567;-76
2021/05/25 11:23:43;;;;;;;1.85;0.80;;;16.00;95.70;;;;;;4982744;28;20113;-76
2021/05/25 11:26:09;;;;;;;3.55;0.80;;;16.60;94.80;;;;;;4963548;28;20393;-76
2021/05/25 11:29:12;;;;;;;1.80;0.80;;;16.30;92.70;;;;;;4983146;28;20042;-76
2021/05/25 11:31:39;;;;;;;4.85;1.02;;;15.90;91.60;;;;;;4984854;28;20437;-77
2021/05/25 11:34:06;;;;;;;1.95;0.88;;;16.50;91.80;;;;;;4964076;28;20027;-76
2021/05/25 11:36:32;;;;;;;2.92;1.02;;;17.80;90.10;;;;;;4984544;28;20504;-77
2021/05/25 11:38:58;;;;;;;5.40;0.73;;;18.70;89.10;;;;;;4983013;28;20044;-75
2021/05/25 11:41:23;;;;;;;4.30;0.80;;;18.30;84.70;;;;;;4982459;28;20092;-74
2021/05/25 11:44:01;;;;;;;7.35;1.20;;;17.70;87.80;;;;;;4983110;28;20030;-75
2021/05/25 11:46:47;;;;;;;5.70;0.70;;;17.40;88.70;;;;;;4981765;28;20032;-76
2021/05/25 11:49:15;;;;;;;2.65;0.80;;;17.30;87.30;;;;;;4990218;28;20385;-75
2021/05/25 11:51:42;;;;;;;3.17;0.93;;;16.70;87.90;;;;;;4993494;28;20030;-75
2021/05/25 11:54:08;;;;;;;3.95;0.68;;;16.20;86.90;;;;;;4993929;28;20033;-73
2021/05/25 11:56:34;;;;;;;2.65;0.60;;;16.40;87.80;;;;;;4975728;28;20085;-74
2021/05/25 11:59:00;;;;;;;1.73;0.70;;;17.00;83.00;;;;;;4994361;28;20026;-74
2021/05/25 12:01:50;;;;;;;4.22;1.35;;;17.40;81.40;;;;;;4995069;28;20029;-75
2021/05/25 12:04:18;;;;;;;1.58;0.63;;;18.10;82.60;;;;;;4995381;28;20033;-75
2021/05/25 12:06:52;;;;;;;2.50;0.80;;;18.70;78.40;;;;;;4996743;28;20105;-75
2021/05/25 12:09:20;;;;;;;3.80;0.80;;;16.80;82.20;;;;;;4995361;28;20114;-75
2021/05/25 12:11:47;;;;;;;4.10;0.88;;;16.70;85.70;;;;;;4995042;28;20030;-73
2021/05/25 12:14:14;;;;;;;2.25;0.80;;;17.80;82.30;;;;;;4977452;28;20088;-75
2021/05/25 12:16:42;;;;;;;4.10;0.80;;;18.50;81.60;;;;;;4976197;28;20030;-76
2021/05/25 12:19:08;;;;;;;2.35;0.90;;;18.40;81.10;;;;;;4992685;28;20034;-75
2021/05/25 12:21:35;;;;;;;2.75;0.88;;;18.60;80.70;;;;;;4992290;28;20034;-73
2021/05/25 12:24:01;;;;;;;1.92;0.80;;;17.60;83.10;;;;;;4993048;28;20041;-74
2021/05/25 12:26:27;;;;;;;3.30;0.77;;;18.40;76.90;;;;;;4993207;28;20023;-76
2021/05/25 12:28:55;;;;;;;3.20;0.70;;;17.80;79.70;;;;;;4991832;28;20034;-75
2021/05/25 12:31:27;;;;;;;1.90;0.65;;;17.40;79.30;;;;;;4992142;28;20027;-74
2021/05/25 12:33:53;;;;;;;1.90;0.90;;;17.40;81.90;;;;;;4995349;28;20106;-75
2021/05/25 12:36:23;;;;;;;1.10;0.70;;;17.00;81.30;;;;;;4975912;28;20460;-77
2021/05/25 12:39:06;;;;;;;2.78;0.75;;;16.10;82.60;;;;;;4979807;28;20022;-76
2021/05/25 12:41:51;;;;;;;4.68;1.13;;;15.70;84.00;;;;;;4976796;28;20038;-75
2021/05/25 12:44:20;;;;;;;3.72;1.40;;;15.00;86.70;;;;;;4995848;28;20034;-78
2021/05/25 12:46:53;;;;;;;2.75;0.70;;;15.00;87.40;;;;;;4978305;28;20033;-75
2021/05/25 12:49:27;;;;;;;5.20;1.00;;;15.20;89.10;;;;;;4993674;28;20182;-75
2021/05/25 12:51:53;;;;;;;2.70;0.70;;;15.40;90.10;;;;;;4982605;28;20026;-76
2021/05/25 12:54:18;;;;;;;2.15;0.90;;;17.30;88.00;;;;;;4995812;28;20030;-74
2021/05/25 12:56:56;;;;;;;4.25;0.90;;;19.20;81.20;;;;;;4993339;28;20050;-73
2021/05/25 12:59:21;;;;;;;1.30;0.52;;;20.10;78.30;;;;;;4979543;28;20117;-75
2021/05/25 13:01:47;;;;;;;4.00;0.88;;;20.00;73.60;;;;;;4984280;28;20105;-74
2021/05/25 13:04:12;;;;;;;3.63;0.60;;;19.60;74.40;;;;;;4986572;28;20061;-76
2021/05/25 13:09:27;;;;;;;7.32;1.10;;;20.50;75.00;;;;;;4986472;28;20038;-74